Time;durP1;ratioP1;P1;durP2;ratioP2;P2;SDS_P1;SDS_P2;PMS_P1;PMS_P2;Temp;Humidity;BMP_temperature;BMP_pressure;BME280_temperature;BME280_humidity;BME280_pressure;Samples;Min_cycle;Max_cycle;Signal;HPM_P1;HPM_P2
2023/05/30 00:01:08;;;;;;;14.07;4.43;;;;;;;;;;5029772;28;20476;-80
2023/05/30 00:03:36;;;;;;;14.83;4.93;;;;;;;;;;5024311;28;20445;-80
2023/05/30 00:06:03;;;;;;;15.20;5.30;;;;;;;;;;5036988;28;20480;-79
2023/05/30 00:08:29;;;;;;;14.57;4.50;;;;;;;;;;5023743;28;20986;-80
2023/05/30 00:10:56;;;;;;;14.50;4.70;;;;;;;;;;5029955;28;20479;-80
2023/05/30 00:13:24;;;;;;;8.87;4.47;;;;;;;;;;5018918;28;20544;-80
2023/05/30 00:15:54;;;;;;;15.47;5.23;;;;;;;;;;5030460;28;20473;-80
2023/05/30 00:18:22;;;;;;;10.00;4.63;;;;;;;;;;5032050;28;20480;-80
2023/05/30 00:20:49;;;;;;;9.47;4.80;;;;;;;;;;5027036;28;20851;-80
2023/05/30 00:23:15;;;;;;;9.37;4.27;;;;;;;;;;5031957;28;20455;-80
2023/05/30 00:25:42;;;;;;;14.57;4.23;;;;;;;;;;5031213;28;20488;-80
2023/05/30 00:28:09;;;;;;;14.13;4.50;;;;;;;;;;5025305;28;20508;-78
2023/05/30 00:30:35;;;;;;;10.67;5.10;;;;;;;;;;5027769;28;20480;-80
2023/05/30 00:33:03;;;;;;;14.83;5.23;;;;;;;;;;5031505;28;20464;-79
2023/05/30 00:35:30;;;;;;;11.20;4.43;;;;;;;;;;5027369;28;20481;-80
2023/05/30 00:37:56;;;;;;;13.77;4.57;;;;;;;;;;5028991;28;20481;-80
2023/05/30 00:40:22;;;;;;;18.53;4.50;;;;;;;;;;5025676;28;20469;-80
2023/05/30 00:42:49;;;;;;;12.00;4.50;;;;;;;;;;5027373;28;20467;-78
2023/05/30 00:45:15;;;;;;;15.33;4.93;;;;;;;;;;5028001;28;20469;-80
2023/05/30 00:47:41;;;;;;;16.43;4.57;;;;;;;;;;5026500;28;20479;-80
2023/05/30 00:50:11;;;;;;;7.97;4.37;;;;;;;;;;5028416;28;20468;-80
2023/05/30 00:52:37;;;;;;;13.40;5.60;;;;;;;;;;5031633;28;20453;-80
2023/05/30 00:55:04;;;;;;;10.33;4.70;;;;;;;;;;5039727;28;20475;-80
2023/05/30 00:57:33;;;;;;;16.90;4.67;;;;;;;;;;5025069;28;20495;-78
2023/05/30 01:00:00;;;;;;;16.67;4.60;;;;;;;;;;5027152;28;20480;-78
2023/05/30 01:02:27;;;;;;;7.83;5.30;;;;;;;;;;5010707;28;20448;-78
2023/05/30 01:04:53;;;;;;;20.23;5.50;;;;;;;;;;5030625;28;20472;-80
2023/05/30 01:07:21;;;;;;;18.40;5.43;;;;;;;;;;5030064;28;20495;-80
2023/05/30 01:09:47;;;;;;;19.17;5.13;;;;;;;;;;5030807;28;20461;-80
2023/05/30 01:12:17;;;;;;;11.40;4.90;;;;;;;;;;5026549;28;20450;-80
2023/05/30 01:14:47;;;;;;;10.17;4.73;;;;;;;;;;5030305;28;20484;-80
2023/05/30 01:17:16;;;;;;;19.20;5.47;;;;;;;;;;5032100;28;20848;-79
2023/05/30 01:19:56;;;;;;;12.73;5.53;;;;;;;;;;5029173;28;20488;-80
2023/05/30 01:22:32;;;;;;;14.40;5.70;;;;;;;;;;5025009;28;20436;-79
2023/05/30 01:25:07;;;;;;;10.90;4.57;;;;;;;;;;5026287;28;20476;-80
2023/05/30 01:27:41;;;;;;;11.10;4.70;;;;;;;;;;5027838;28;20841;-80
2023/05/30 01:30:10;;;;;;;9.30;4.50;;;;;;;;;;5034420;28;20480;-80
2023/05/30 01:32:37;;;;;;;9.80;5.10;;;;;;;;;;5031462;28;20950;-80
2023/05/30 01:35:03;;;;;;;14.67;5.30;;;;;;;;;;5029307;28;20483;-79
2023/05/30 01:37:30;;;;;;;11.33;4.90;;;;;;;;;;5027484;28;20485;-80
2023/05/30 01:39:56;;;;;;;11.20;5.37;;;;;;;;;;5027736;28;20477;-80
2023/05/30 01:42:23;;;;;;;13.80;4.90;;;;;;;;;;5027197;28;20943;-80
2023/05/30 01:44:51;;;;;;;12.27;5.50;;;;;;;;;;5031763;28;20518;-80
2023/05/30 01:47:28;;;;;;;16.17;5.40;;;;;;;;;;5029606;28;21000;-80
2023/05/30 01:49:59;;;;;;;14.40;6.17;;;;;;;;;;5031011;28;20464;-79
2023/05/30 01:52:28;;;;;;;18.37;5.17;;;;;;;;;;5033297;28;20449;-80
2023/05/30 01:54:58;;;;;;;20.47;6.30;;;;;;;;;;5027514;28;20476;-80
2023/05/30 01:57:25;;;;;;;12.33;5.20;;;;;;;;;;5029420;28;20476;-79
2023/05/30 01:59:53;;;;;;;15.13;5.10;;;;;;;;;;5031171;28;20580;-80
2023/05/30 02:02:21;;;;;;;16.73;5.80;;;;;;;;;;5029896;28;20449;-80
2023/05/30 02:04:47;;;;;;;10.43;4.27;;;;;;;;;;5024353;28;20483;-80
2023/05/30 02:07:13;;;;;;;6.90;4.03;;;;;;;;;;5033062;28;20473;-80
2023/05/30 02:09:41;;;;;;;12.43;5.77;;;;;;;;;;5030204;28;20476;-80
2023/05/30 02:12:08;;;;;;;17.97;5.77;;;;;;;;;;5034885;28;20472;-79
2023/05/30 02:14:35;;;;;;;13.70;5.07;;;;;;;;;;5033056;28;20907;-79
2023/05/30 02:17:02;;;;;;;19.57;5.57;;;;;;;;;;5033334;28;20506;-80
2023/05/30 02:19:30;;;;;;;14.77;5.83;;;;;;;;;;5035308;28;20977;-80
2023/05/30 02:21:56;;;;;;;13.47;4.63;;;;;;;;;;5034678;28;20460;-79
2023/05/30 02:24:23;;;;;;;13.00;4.90;;;;;;;;;;5025143;28;20475;-79
2023/05/30 02:26:50;;;;;;;9.57;4.60;;;;;;;;;;5024342;28;21047;-80
2023/05/30 02:29:16;;;;;;;8.33;4.80;;;;;;;;;;5019267;28;20445;-79
2023/05/30 02:31:43;;;;;;;17.40;5.87;;;;;;;;;;5034798;28;20463;-80
2023/05/30 02:34:09;;;;;;;12.13;5.83;;;;;;;;;;5029201;28;20461;-79
2023/05/30 02:36:38;;;;;;;14.23;5.87;;;;;;;;;;5025600;28;20835;-80
2023/05/30 02:39:06;;;;;;;13.13;5.27;;;;;;;;;;5031628;28;20444;-80
2023/05/30 02:41:32;;;;;;;19.73;5.67;;;;;;;;;;5032423;28;20527;-79
2023/05/30 02:43:59;;;;;;;13.80;5.30;;;;;;;;;;5029834;28;20445;-79
2023/05/30 02:46:26;;;;;;;8.67;4.97;;;;;;;;;;5031632;28;20465;-80
2023/05/30 02:48:53;;;;;;;9.43;5.40;;;;;;;;;;5037642;28;20970;-80
2023/05/30 02:51:19;;;;;;;13.53;5.20;;;;;;;;;;5027609;28;20855;-80
2023/05/30 02:53:47;;;;;;;13.23;5.03;;;;;;;;;;5031148;28;20951;-80
2023/05/30 02:56:13;;;;;;;9.50;4.70;;;;;;;;;;5031508;28;20477;-80
2023/05/30 02:58:40;;;;;;;13.80;5.80;;;;;;;;;;5032256;28;20495;-79
2023/05/30 03:01:07;;;;;;;15.13;5.20;;;;;;;;;;5028867;28;20485;-80
2023/05/30 03:03:34;;;;;;;14.20;5.73;;;;;;;;;;5030067;28;20449;-79
2023/05/30 03:06:02;;;;;;;11.93;5.57;;;;;;;;;;5031489;28;21009;-79
2023/05/30 03:08:29;;;;;;;14.73;6.00;;;;;;;;;;5014899;28;20481;-80
2023/05/30 03:10:57;;;;;;;8.03;4.10;;;;;;;;;;5026385;28;21064;-80
2023/05/30 03:13:23;;;;;;;19.57;5.17;;;;;;;;;;5014774;28;20931;-80
2023/05/30 03:15:50;;;;;;;16.87;6.10;;;;;;;;;;5009362;28;21013;-80
2023/05/30 03:18:16;;;;;;;15.60;6.50;;;;;;;;;;5031221;28;20846;-80
2023/05/30 03:20:43;;;;;;;14.83;5.80;;;;;;;;;;5030107;28;20485;-79
2023/05/30 03:23:10;;;;;;;11.97;4.80;;;;;;;;;;5020913;28;20508;-79
2023/05/30 03:25:37;;;;;;;12.30;5.30;;;;;;;;;;5023588;28;20559;-79
2023/05/30 03:28:06;;;;;;;15.10;5.97;;;;;;;;;;5007784;28;20468;-79
2023/05/30 03:30:32;;;;;;;11.80;6.00;;;;;;;;;;5029950;28;20535;-80
2023/05/30 03:32:59;;;;;;;9.33;4.97;;;;;;;;;;5024947;28;20449;-80
2023/05/30 03:35:26;;;;;;;12.50;5.20;;;;;;;;;;5028542;28;20478;-80
2023/05/30 03:37:53;;;;;;;16.63;5.60;;;;;;;;;;5022988;28;20473;-79
2023/05/30 03:40:19;;;;;;;11.70;6.33;;;;;;;;;;5032767;28;20477;-79
2023/05/30 03:42:45;;;;;;;12.77;5.60;;;;;;;;;;5030836;28;20463;-80
2023/05/30 03:45:13;;;;;;;10.30;4.80;;;;;;;;;;5030231;28;20486;-80
2023/05/30 03:47:43;;;;;;;12.80;5.30;;;;;;;;;;5032264;28;20839;-80
2023/05/30 03:50:10;;;;;;;11.47;5.77;;;;;;;;;;5031534;28;20464;-80
2023/05/30 03:52:36;;;;;;;19.73;5.90;;;;;;;;;;5032071;28;20957;-79
2023/05/30 03:55:03;;;;;;;20.63;6.60;;;;;;;;;;5015282;28;20469;-80
2023/05/30 03:57:29;;;;;;;17.43;5.93;;;;;;;;;;5032239;28;20485;-80
2023/05/30 03:59:56;;;;;;;12.17;5.70;;;;;;;;;;5027765;28;20473;-80
2023/05/30 04:02:24;;;;;;;17.33;5.90;;;;;;;;;;5032284;28;20440;-80
2023/05/30 04:04:50;;;;;;;14.57;5.97;;;;;;;;;;5015896;28;20469;-80
2023/05/30 04:07:17;;;;;;;15.67;6.17;;;;;;;;;;5027556;28;20480;-79
2023/05/30 04:09:43;;;;;;;19.23;7.00;;;;;;;;;;5027989;28;20544;-79
2023/05/30 04:12:10;;;;;;;17.17;6.63;;;;;;;;;;5032684;28;20457;-79
2023/05/30 04:14:36;;;;;;;15.57;7.33;;;;;;;;;;5019921;28;20472;-79
2023/05/30 04:17:02;;;;;;;16.77;5.50;;;;;;;;;;5029666;28;20496;-79
2023/05/30 04:19:30;;;;;;;19.27;5.97;;;;;;;;;;5022339;28;20479;-80
2023/05/30 04:21:57;;;;;;;14.77;6.57;;;;;;;;;;5024684;28;20546;-79
2023/05/30 04:24:23;;;;;;;17.57;6.13;;;;;;;;;;5012179;28;20437;-80
2023/05/30 04:26:50;;;;;;;11.77;5.90;;;;;;;;;;5027776;28;20463;-80
2023/05/30 04:29:20;;;;;;;14.03;6.63;;;;;;;;;;5027255;28;20460;-80
2023/05/30 04:31:46;;;;;;;14.17;5.53;;;;;;;;;;5030116;28;20488;-79
2023/05/30 04:34:15;;;;;;;16.73;5.90;;;;;;;;;;5032237;28;20483;-80
2023/05/30 04:36:44;;;;;;;23.17;6.57;;;;;;;;;;5032735;28;20440;-79
2023/05/30 04:39:11;;;;;;;20.13;7.10;;;;;;;;;;5031347;28;20468;-79
2023/05/30 04:41:37;;;;;;;18.57;6.50;;;;;;;;;;5031568;28;20492;-80
2023/05/30 04:44:03;;;;;;;21.23;6.33;;;;;;;;;;5032789;28;20467;-80
2023/05/30 04:46:30;;;;;;;8.30;4.40;;;;;;;;;;5026650;28;20470;-79
2023/05/30 04:49:00;;;;;;;14.10;5.67;;;;;;;;;;5028899;28;20473;-79
2023/05/30 04:51:27;;;;;;;9.33;4.90;;;;;;;;;;5025529;28;20468;-80
2023/05/30 04:53:55;;;;;;;7.03;4.20;;;;;;;;;;5031351;28;20457;-80
2023/05/30 04:56:21;;;;;;;15.20;3.90;;;;;;;;;;5003757;28;20481;-78
2023/05/30 04:58:48;;;;;;;9.07;4.60;;;;;;;;;;5029031;28;20468;-78
2023/05/30 05:01:14;;;;;;;13.20;4.27;;;;;;;;;;5030348;28;20490;-80
2023/05/30 05:03:41;;;;;;;19.63;4.60;;;;;;;;;;5034474;28;20457;-80
2023/05/30 05:06:09;;;;;;;15.00;5.40;;;;;;;;;;5035064;28;20481;-80
2023/05/30 05:08:35;;;;;;;9.43;4.17;;;;;;;;;;5032006;28;20545;-80
2023/05/30 05:11:04;;;;;;;14.80;4.60;;;;;;;;;;5034055;28;20472;-80
2023/05/30 05:13:31;;;;;;;8.40;3.60;;;;;;;;;;5035968;28;20445;-79
2023/05/30 05:15:57;;;;;;;7.07;4.07;;;;;;;;;;5035078;28;20477;-80
2023/05/30 05:18:23;;;;;;;9.00;4.47;;;;;;;;;;5036151;28;20467;-80
2023/05/30 05:20:50;;;;;;;12.60;4.57;;;;;;;;;;5017419;28;20476;-78
2023/05/30 05:23:17;;;;;;;10.27;3.50;;;;;;;;;;5028918;28;20446;-80
2023/05/30 05:25:43;;;;;;;8.87;4.40;;;;;;;;;;5016840;28;20548;-80
2023/05/30 05:28:11;;;;;;;11.00;3.90;;;;;;;;;;5032807;28;20834;-80
2023/05/30 05:30:39;;;;;;;8.83;4.00;;;;;;;;;;5021253;28;20468;-78
2023/05/30 05:33:05;;;;;;;8.60;3.90;;;;;;;;;;5033390;28;20465;-79
2023/05/30 05:35:34;;;;;;;15.90;4.40;;;;;;;;;;5032540;28;20487;-80
2023/05/30 05:38:00;;;;;;;8.27;4.60;;;;;;;;;;5029732;28;20464;-80
2023/05/30 05:40:27;;;;;;;9.63;3.90;;;;;;;;;;5019304;28;20488;-80
2023/05/30 05:42:53;;;;;;;7.90;4.00;;;;;;;;;;5030298;28;20985;-79
2023/05/30 05:45:21;;;;;;;11.40;3.43;;;;;;;;;;5029165;28;20476;-78
2023/05/30 05:47:47;;;;;;;9.00;3.70;;;;;;;;;;5031009;28;20496;-80
2023/05/30 05:50:14;;;;;;;9.87;3.33;;;;;;;;;;5031435;28;20485;-80
2023/05/30 05:52:41;;;;;;;14.70;3.40;;;;;;;;;;5031891;28;20448;-80
2023/05/30 05:55:08;;;;;;;13.47;3.53;;;;;;;;;;5034346;28;20863;-78
2023/05/30 05:57:34;;;;;;;7.90;3.97;;;;;;;;;;5032798;28;20484;-78
2023/05/30 06:00:05;;;;;;;9.07;3.50;;;;;;;;;;5021075;28;20465;-78
2023/05/30 06:02:32;;;;;;;7.63;3.77;;;;;;;;;;5017800;28;20570;-78
2023/05/30 06:04:59;;;;;;;6.70;2.93;;;;;;;;;;5031820;28;20479;-78
2023/05/30 06:07:25;;;;;;;13.40;5.43;;;;;;;;;;5030767;28;20464;-78
2023/05/30 06:09:51;;;;;;;9.53;3.40;;;;;;;;;;5026998;28;20507;-81
2023/05/30 06:12:18;;;;;;;10.63;2.87;;;;;;;;;;5028312;28;20445;-81
2023/05/30 06:14:44;;;;;;;10.33;3.50;;;;;;;;;;5012457;28;20469;-79
2023/05/30 06:17:10;;;;;;;6.17;3.70;;;;;;;;;;5033815;28;20979;-79
2023/05/30 06:19:40;;;;;;;8.00;3.40;;;;;;;;;;5033058;28;20467;-80
2023/05/30 06:22:07;;;;;;;8.70;4.20;;;;;;;;;;5027345;28;21031;-80
2023/05/30 06:24:35;;;;;;;9.73;4.97;;;;;;;;;;5032633;28;20479;-81
2023/05/30 06:27:01;;;;;;;15.23;7.40;;;;;;;;;;5041756;28;20472;-80
2023/05/30 06:29:30;;;;;;;18.17;5.60;;;;;;;;;;5016047;28;20479;-80
2023/05/30 06:31:56;;;;;;;9.07;5.30;;;;;;;;;;5026388;28;20540;-80
2023/05/30 06:34:23;;;;;;;10.43;5.17;;;;;;;;;;5028053;28;20452;-79
2023/05/30 06:36:50;;;;;;;10.10;5.07;;;;;;;;;;5039824;28;20448;-79
2023/05/30 06:39:17;;;;;;;8.30;4.77;;;;;;;;;;5023451;28;20449;-79
2023/05/30 06:41:44;;;;;;;10.27;4.60;;;;;;;;;;5032972;28;20908;-80
2023/05/30 06:44:11;;;;;;;6.17;4.00;;;;;;;;;;5028150;28;20454;-80
2023/05/30 06:46:37;;;;;;;7.93;3.43;;;;;;;;;;5027449;28;20471;-80
2023/05/30 06:49:04;;;;;;;12.73;4.40;;;;;;;;;;5022806;28;20456;-80
2023/05/30 06:51:31;;;;;;;11.87;4.83;;;;;;;;;;5028817;28;20533;-79
2023/05/30 06:53:58;;;;;;;5.93;3.80;;;;;;;;;;5029786;28;20453;-80
2023/05/30 06:56:26;;;;;;;11.10;3.90;;;;;;;;;;5033359;28;21006;-80
2023/05/30 06:58:52;;;;;;;8.57;4.07;;;;;;;;;;5028326;28;20480;-80
2023/05/30 07:01:18;;;;;;;6.27;4.20;;;;;;;;;;5032346;28;20478;-80
2023/05/30 07:03:45;;;;;;;8.73;3.50;;;;;;;;;;5031366;28;20453;-78
2023/05/30 07:06:12;;;;;;;5.90;3.20;;;;;;;;;;5033591;28;20472;-78
2023/05/30 07:08:38;;;;;;;6.93;4.37;;;;;;;;;;5031633;28;20480;-78
2023/05/30 07:11:06;;;;;;;9.80;3.93;;;;;;;;;;5038156;28;20555;-80
2023/05/30 07:13:33;;;;;;;7.73;5.10;;;;;;;;;;5031291;28;20448;-80
2023/05/30 07:16:00;;;;;;;12.30;4.30;;;;;;;;;;5030268;28;20828;-80
2023/05/30 07:18:26;;;;;;;13.83;4.50;;;;;;;;;;5030923;28;20892;-80
2023/05/30 07:20:52;;;;;;;10.83;5.07;;;;;;;;;;5032181;28;20473;-78
2023/05/30 07:23:19;;;;;;;13.33;4.20;;;;;;;;;;5014967;28;20451;-80
2023/05/30 07:25:45;;;;;;;10.37;4.97;;;;;;;;;;5027803;28;20474;-80
2023/05/30 07:28:13;;;;;;;10.67;5.40;;;;;;;;;;5020572;28;20464;-80
2023/05/30 07:30:39;;;;;;;15.80;4.93;;;;;;;;;;5032149;28;21025;-78
2023/05/30 07:33:05;;;;;;;10.80;3.90;;;;;;;;;;5036572;28;20460;-77
2023/05/30 07:35:33;;;;;;;7.20;3.73;;;;;;;;;;5031771;28;20917;-78
2023/05/30 07:38:00;;;;;;;6.57;4.07;;;;;;;;;;5027930;28;20465;-78
2023/05/30 07:40:26;;;;;;;7.30;4.37;;;;;;;;;;5013769;28;20461;-78
2023/05/30 07:42:53;;;;;;;7.80;3.33;;;;;;;;;;5025748;28;20492;-78
2023/05/30 07:45:20;;;;;;;7.37;4.03;;;;;;;;;;5031715;28;20464;-80
2023/05/30 07:47:47;;;;;;;5.37;3.37;;;;;;;;;;5027130;28;20468;-79
2023/05/30 07:50:13;;;;;;;8.60;3.40;;;;;;;;;;5012370;28;20911;-79
2023/05/30 07:52:40;;;;;;;9.13;2.87;;;;;;;;;;5027800;28;20449;-80
2023/05/30 07:55:06;;;;;;;6.03;3.43;;;;;;;;;;5029102;28;20469;-80
2023/05/30 07:57:33;;;;;;;7.40;3.63;;;;;;;;;;4994257;28;20464;-80
2023/05/30 07:59:59;;;;;;;9.93;5.03;;;;;;;;;;5032603;28;21097;-80
2023/05/30 08:02:27;;;;;;;8.10;3.17;;;;;;;;;;5031415;28;20484;-79
2023/05/30 08:04:55;;;;;;;6.60;3.03;;;;;;;;;;5032038;28;20925;-80
2023/05/30 08:07:21;;;;;;;3.93;2.80;;;;;;;;;;5027751;28;20468;-78
2023/05/30 08:09:48;;;;;;;3.60;2.33;;;;;;;;;;5014522;28;20480;-78
2023/05/30 08:12:18;;;;;;;7.30;2.57;;;;;;;;;;5042199;28;20448;-78
2023/05/30 08:14:44;;;;;;;4.50;2.30;;;;;;;;;;5029416;28;20477;-78
2023/05/30 08:17:12;;;;;;;5.53;2.50;;;;;;;;;;5024808;28;20468;-78
2023/05/30 08:19:42;;;;;;;3.70;2.90;;;;;;;;;;5030374;28;20477;-78
2023/05/30 08:22:10;;;;;;;4.63;3.07;;;;;;;;;;5027416;28;20484;-78
2023/05/30 08:24:36;;;;;;;6.57;3.50;;;;;;;;;;5031939;28;20476;-79
2023/05/30 08:27:03;;;;;;;3.57;2.37;;;;;;;;;;5018841;28;20972;-78
2023/05/30 08:29:30;;;;;;;4.70;2.70;;;;;;;;;;5014753;28;20538;-80
2023/05/30 08:31:56;;;;;;;3.60;2.30;;;;;;;;;;5021839;28;20440;-78
2023/05/30 08:34:24;;;;;;;4.33;1.90;;;;;;;;;;5009734;28;20499;-78
2023/05/30 08:36:52;;;;;;;3.43;1.93;;;;;;;;;;5023286;28;20452;-78
2023/05/30 08:39:19;;;;;;;2.83;1.73;;;;;;;;;;5032718;28;20457;-78
2023/05/30 08:41:45;;;;;;;2.13;1.77;;;;;;;;;;5033812;28;20492;-78
2023/05/30 08:44:12;;;;;;;1.93;1.80;;;;;;;;;;5029697;28;20946;-78
2023/05/30 08:46:42;;;;;;;2.60;1.33;;;;;;;;;;5027302;28;20456;-79
2023/05/30 08:49:13;;;;;;;1.47;1.37;;;;;;;;;;5029678;28;20441;-79
2023/05/30 08:51:42;;;;;;;2.57;1.20;;;;;;;;;;5018856;28;20886;-79
2023/05/30 08:54:11;;;;;;;2.50;1.30;;;;;;;;;;5033335;28;20457;-79
2023/05/30 08:56:38;;;;;;;2.37;1.50;;;;;;;;;;5035361;28;20835;-79
2023/05/30 08:59:08;;;;;;;2.57;1.30;;;;;;;;;;5036411;28;20457;-79
2023/05/30 09:01:35;;;;;;;3.17;1.53;;;;;;;;;;5036243;28;20552;-78
2023/05/30 09:04:03;;;;;;;3.13;1.93;;;;;;;;;;5037860;28;20419;-79
2023/05/30 09:06:30;;;;;;;2.00;1.70;;;;;;;;;;5031885;28;21033;-79
2023/05/30 09:08:57;;;;;;;2.00;1.37;;;;;;;;;;5036129;28;20516;-79
2023/05/30 09:11:26;;;;;;;2.33;1.00;;;;;;;;;;5028775;28;20477;-79
2023/05/30 09:13:52;;;;;;;1.67;0.87;;;;;;;;;;5030605;28;20440;-79
2023/05/30 09:16:20;;;;;;;1.43;0.60;;;;;;;;;;5038623;28;21213;-79
2023/05/30 09:18:46;;;;;;;0.67;0.67;;;;;;;;;;5034372;28;20464;-79
2023/05/30 09:21:15;;;;;;;1.40;1.30;;;;;;;;;;5025458;28;20443;-79
2023/05/30 09:23:43;;;;;;;1.70;1.60;;;;;;;;;;5023689;28;20487;-79
2023/05/30 09:26:14;;;;;;;3.33;2.13;;;;;;;;;;5029453;28;20475;-79
2023/05/30 09:28:44;;;;;;;1.37;1.27;;;;;;;;;;5040704;28;20541;-79
2023/05/30 09:31:11;;;;;;;2.47;1.77;;;;;;;;;;5050527;28;20472;-79
2023/05/30 09:33:42;;;;;;;3.13;1.83;;;;;;;;;;5031236;28;20430;-79
2023/05/30 09:36:08;;;;;;;5.90;2.70;;;;;;;;;;5030223;28;20470;-79
2023/05/30 09:38:34;;;;;;;2.30;2.10;;;;;;;;;;5030017;28;20473;-79
2023/05/30 09:41:03;;;;;;;3.17;2.33;;;;;;;;;;5031012;28;20998;-78
2023/05/30 09:43:34;;;;;;;4.03;2.23;;;;;;;;;;5032406;28;20488;-79
2023/05/30 09:46:03;;;;;;;2.73;1.57;;;;;;;;;;5033979;28;20464;-79
2023/05/30 09:48:29;;;;;;;2.70;1.43;;;;;;;;;;5033592;28;20545;-79
2023/05/30 09:50:59;;;;;;;3.23;2.10;;;;;;;;;;5027962;28;20455;-78
2023/05/30 09:53:27;;;;;;;2.50;1.70;;;;;;;;;;5026606;28;20439;-79
2023/05/30 09:55:54;;;;;;;2.63;1.77;;;;;;;;;;5035957;28;20464;-79
2023/05/30 09:58:21;;;;;;;2.03;1.70;;;;;;;;;;5030086;28;20435;-79
2023/05/30 10:00:51;;;;;;;2.13;1.77;;;;;;;;;;5025283;28;20483;-79
2023/05/30 10:03:20;;;;;;;1.90;1.40;;;;;;;;;;5013805;28;20857;-79
2023/05/30 10:05:46;;;;;;;1.53;1.43;;;;;;;;;;5028154;28;20450;-79
2023/05/30 10:08:14;;;;;;;1.30;1.10;;;;;;;;;;5027133;28;20840;-79
2023/05/30 10:10:40;;;;;;;1.83;1.53;;;;;;;;;;5026457;28;20456;-79
2023/05/30 10:13:07;;;;;;;3.90;1.53;;;;;;;;;;5032186;28;20445;-79
2023/05/30 10:15:34;;;;;;;3.80;1.57;;;;;;;;;;5033721;28;20468;-79
2023/05/30 10:18:05;;;;;;;2.07;1.30;;;;;;;;;;5031986;28;20477;-79
2023/05/30 10:20:34;;;;;;;1.50;1.33;;;;;;;;;;5027932;28;20451;-79
2023/05/30 10:23:06;;;;;;;2.10;1.60;;;;;;;;;;5035383;28;20499;-79
2023/05/30 10:25:34;;;;;;;1.30;1.20;;;;;;;;;;5029418;28;20451;-79
2023/05/30 10:28:01;;;;;;;1.83;1.50;;;;;;;;;;5011046;28;20944;-79
2023/05/30 10:30:28;;;;;;;1.80;1.23;;;;;;;;;;5032258;28;20564;-79
2023/05/30 10:32:58;;;;;;;2.43;1.60;;;;;;;;;;5026959;28;20448;-79
2023/05/30 10:35:25;;;;;;;1.77;1.47;;;;;;;;;;5034560;28;21168;-79
2023/05/30 10:37:53;;;;;;;3.13;1.50;;;;;;;;;;5007922;28;20439;-79
2023/05/30 10:40:24;;;;;;;1.50;1.40;;;;;;;;;;5034247;28;20469;-79
2023/05/30 10:42:56;;;;;;;1.50;1.40;;;;;;;;;;5025838;28;20452;-79
2023/05/30 10:45:27;;;;;;;1.50;1.40;;;;;;;;;;5034131;28;20444;-79
2023/05/30 10:47:55;;;;;;;1.63;1.53;;;;;;;;;;5026216;28;20492;-79
2023/05/30 10:50:26;;;;;;;2.27;1.33;;;;;;;;;;5028296;28;20455;-79
2023/05/30 10:52:55;;;;;;;2.17;1.63;;;;;;;;;;5021172;28;20980;-79
2023/05/30 10:55:22;;;;;;;1.20;1.10;;;;;;;;;;5030373;28;20447;-79
2023/05/30 10:57:49;;;;;;;1.67;1.57;;;;;;;;;;5024222;28;20846;-79
2023/05/30 11:00:21;;;;;;;1.67;1.57;;;;;;;;;;5031363;28;20497;-79
2023/05/30 11:02:52;;;;;;;1.90;1.67;;;;;;;;;;5028354;28;20464;-79
2023/05/30 11:05:20;;;;;;;1.83;1.60;;;;;;;;;;5025240;28;20470;-79
2023/05/30 11:07:47;;;;;;;2.33;1.50;;;;;;;;;;5034290;28;20463;-79
2023/05/30 11:10:15;;;;;;;2.73;1.33;;;;;;;;;;5028587;28;20446;-79
2023/05/30 11:12:43;;;;;;;1.67;1.40;;;;;;;;;;5029130;28;20456;-79
2023/05/30 11:15:10;;;;;;;1.20;1.10;;;;;;;;;;5036350;28;20434;-79
2023/05/30 11:17:37;;;;;;;1.20;1.10;;;;;;;;;;5034110;28;20616;-79
2023/05/30 11:20:08;;;;;;;0.87;0.87;;;;;;;;;;5025959;28;20442;-78
2023/05/30 11:22:35;;;;;;;1.40;1.30;;;;;;;;;;5033826;28;20466;-78
2023/05/30 11:25:23;;;;;;;2.07;1.47;;;;;;;;;;5032808;28;20435;-78
2023/05/30 11:28:18;;;;;;;2.00;1.63;;;;;;;;;;5030284;28;20454;-78
2023/05/30 11:30:45;;;;;;;1.97;1.73;;;;;;;;;;4980053;28;20447;-78
2023/05/30 11:33:12;;;;;;;2.60;1.90;;;;;;;;;;5032298;28;20445;-78
2023/05/30 11:35:39;;;;;;;4.80;1.70;;;;;;;;;;5029635;28;20563;-79
2023/05/30 11:38:06;;;;;;;2.00;1.20;;;;;;;;;;5033370;28;20962;-78
2023/05/30 11:40:33;;;;;;;1.67;1.57;;;;;;;;;;5030687;28;20444;-78
2023/05/30 11:43:00;;;;;;;2.27;1.57;;;;;;;;;;5043664;28;20466;-78
2023/05/30 11:45:27;;;;;;;1.53;1.40;;;;;;;;;;5033391;28;20472;-78
2023/05/30 11:47:54;;;;;;;1.40;1.30;;;;;;;;;;5013680;28;20447;-78
2023/05/30 11:50:21;;;;;;;2.83;1.57;;;;;;;;;;5034219;28;20454;-80
2023/05/30 11:52:47;;;;;;;2.17;1.40;;;;;;;;;;5028210;28;20917;-79
2023/05/30 11:55:14;;;;;;;1.80;1.43;;;;;;;;;;5038874;28;20472;-78
2023/05/30 11:57:41;;;;;;;2.90;1.50;;;;;;;;;;5024129;28;20503;-78
2023/05/30 12:00:11;;;;;;;1.30;1.20;;;;;;;;;;5026984;28;20484;-78
2023/05/30 12:02:38;;;;;;;6.57;0.97;;;;;;;;;;5006450;28;21013;-78
2023/05/30 12:05:04;;;;;;;3.50;1.47;;;;;;;;;;5023414;28;20467;-78
2023/05/30 12:07:32;;;;;;;1.70;1.60;;;;;;;;;;5028773;28;20477;-78
2023/05/30 12:09:59;;;;;;;1.77;1.67;;;;;;;;;;5028985;28;20465;-78
2023/05/30 12:12:26;;;;;;;1.40;1.30;;;;;;;;;;5003490;28;20457;-77
2023/05/30 12:15:04;;;;;;;1.63;1.53;;;;;;;;;;5014931;28;20446;-80
2023/05/30 12:17:30;;;;;;;2.33;2.13;;;;;;;;;;5006146;28;20439;-78
2023/05/30 12:19:57;;;;;;;2.10;2.00;;;;;;;;;;5026575;28;20436;-78
2023/05/30 12:22:24;;;;;;;1.90;1.60;;;;;;;;;;5032590;28;20451;-78
2023/05/30 12:24:52;;;;;;;1.87;1.23;;;;;;;;;;5029992;28;20449;-78
2023/05/30 12:27:19;;;;;;;1.87;1.43;;;;;;;;;;5026989;28;20443;-78
2023/05/30 12:29:45;;;;;;;3.17;2.80;;;;;;;;;;5026963;28;20431;-78
2023/05/30 12:32:13;;;;;;;3.50;2.87;;;;;;;;;;5032052;28;20940;-78
2023/05/30 12:34:40;;;;;;;4.03;3.20;;;;;;;;;;5029660;28;20459;-78
2023/05/30 12:37:09;;;;;;;5.03;2.43;;;;;;;;;;5026208;28;20449;-78
2023/05/30 12:39:35;;;;;;;3.20;2.90;;;;;;;;;;5031270;28;20924;-78
2023/05/30 12:42:07;;;;;;;3.17;2.87;;;;;;;;;;5035542;28;20468;-78
2023/05/30 12:44:43;;;;;;;3.10;2.90;;;;;;;;;;5027969;28;20446;-79
2023/05/30 12:47:10;;;;;;;4.20;2.60;;;;;;;;;;5030231;28;20483;-78
2023/05/30 12:49:38;;;;;;;4.23;2.97;;;;;;;;;;5026789;28;20419;-78
2023/05/30 12:52:05;;;;;;;2.80;2.60;;;;;;;;;;5026728;28;20469;-78
2023/05/30 12:54:33;;;;;;;2.87;2.67;;;;;;;;;;5023652;28;20948;-78
2023/05/30 12:56:59;;;;;;;2.47;2.30;;;;;;;;;;5024886;28;20466;-78
2023/05/30 12:59:26;;;;;;;2.50;2.30;;;;;;;;;;5003745;28;20948;-78
2023/05/30 13:01:52;;;;;;;2.33;2.13;;;;;;;;;;5031553;28;20476;-78
2023/05/30 13:04:19;;;;;;;2.20;2.00;;;;;;;;;;5020348;28;20484;-78
2023/05/30 13:06:46;;;;;;;2.90;2.13;;;;;;;;;;5027849;28;20999;-78
2023/05/30 13:09:13;;;;;;;2.10;2.00;;;;;;;;;;5031484;28;20468;-78
2023/05/30 13:11:39;;;;;;;2.30;1.90;;;;;;;;;;5025014;28;20968;-78
2023/05/30 13:14:05;;;;;;;2.23;2.03;;;;;;;;;;5023551;28;20454;-78
2023/05/30 13:16:32;;;;;;;4.70;2.30;;;;;;;;;;5029173;28;20473;-78
2023/05/30 13:18:59;;;;;;;2.50;2.30;;;;;;;;;;5031785;28;21014;-78
2023/05/30 13:21:25;;;;;;;3.43;2.47;;;;;;;;;;5028882;28;20476;-78
2023/05/30 13:23:53;;;;;;;2.57;2.37;;;;;;;;;;5030558;28;21021;-78
2023/05/30 13:26:21;;;;;;;4.07;2.63;;;;;;;;;;5041781;28;20479;-78
2023/05/30 13:28:47;;;;;;;2.60;2.33;;;;;;;;;;5032629;28;20495;-78
2023/05/30 13:31:14;;;;;;;2.50;1.97;;;;;;;;;;5035596;28;20469;-78
2023/05/30 13:33:41;;;;;;;2.80;2.40;;;;;;;;;;5017253;28;20445;-79
2023/05/30 13:36:07;;;;;;;3.30;2.47;;;;;;;;;;5018790;28;21007;-78
2023/05/30 13:38:34;;;;;;;2.70;2.50;;;;;;;;;;5030058;28;20479;-78
2023/05/30 13:41:01;;;;;;;3.73;2.10;;;;;;;;;;5035361;28;20469;-78
2023/05/30 13:43:28;;;;;;;3.10;2.33;;;;;;;;;;5028701;28;20492;-78
2023/05/30 13:45:54;;;;;;;2.93;2.43;;;;;;;;;;5028804;28;20444;-78
2023/05/30 13:48:21;;;;;;;4.40;1.90;;;;;;;;;;5033200;28;20471;-78
2023/05/30 13:50:48;;;;;;;3.30;1.97;;;;;;;;;;5034242;28;20472;-78
2023/05/30 13:53:14;;;;;;;3.97;2.20;;;;;;;;;;5031757;28;20446;-78
2023/05/30 13:55:40;;;;;;;4.00;2.77;;;;;;;;;;5029344;28;20468;-78
2023/05/30 13:58:09;;;;;;;3.37;2.90;;;;;;;;;;5023908;28;20468;-78
2023/05/30 14:00:36;;;;;;;2.50;2.30;;;;;;;;;;5033801;28;20468;-78
2023/05/30 14:03:03;;;;;;;3.40;2.60;;;;;;;;;;5029630;28;20472;-78
2023/05/30 14:05:29;;;;;;;5.23;2.67;;;;;;;;;;5031737;28;20480;-78
2023/05/30 14:07:56;;;;;;;2.93;2.63;;;;;;;;;;5033607;28;20468;-78
2023/05/30 14:10:23;;;;;;;4.10;2.40;;;;;;;;;;5035965;28;21097;-78
2023/05/30 14:12:51;;;;;;;3.07;2.23;;;;;;;;;;5034689;28;20502;-78
2023/05/30 14:15:19;;;;;;;2.70;2.50;;;;;;;;;;5031037;28;20456;-78
2023/05/30 14:17:46;;;;;;;4.93;3.17;;;;;;;;;;5030240;28;20479;-78
2023/05/30 14:20:13;;;;;;;2.30;2.10;;;;;;;;;;5029687;28;20555;-78
2023/05/30 14:22:39;;;;;;;4.93;2.70;;;;;;;;;;5030825;28;20464;-78
2023/05/30 14:25:07;;;;;;;3.97;2.10;;;;;;;;;;5030734;28;20473;-78
2023/05/30 14:27:33;;;;;;;2.93;2.63;;;;;;;;;;5024653;28;20461;-78
2023/05/30 14:30:02;;;;;;;4.17;2.10;;;;;;;;;;5008659;28;20484;-78
2023/05/30 14:32:31;;;;;;;3.77;2.30;;;;;;;;;;5024393;28;20532;-78
2023/05/30 14:34:58;;;;;;;2.60;2.17;;;;;;;;;;5034008;28;20447;-78
2023/05/30 14:37:24;;;;;;;3.53;2.10;;;;;;;;;;5027751;28;20461;-78
2023/05/30 14:39:51;;;;;;;2.50;2.00;;;;;;;;;;5035664;28;20453;-78